Time;durP1;ratioP1;P1;durP2;ratioP2;P2;SDS_P1;SDS_P2;PMS_P1;PMS_P2;Temp;Humidity;BMP_temperature;BMP_pressure;BME280_temperature;BME280_humidity;BME280_pressure;Samples;Min_cycle;Max_cycle;Signal;HPM_P1;HPM_P2
2022/02/03 00:02:39;;;;;;;8.88;2.00;;;;;;;1.20;100.00;101147.13;5206286;28;20061;-77
2022/02/03 00:05:29;;;;;;;14.40;2.42;;;;;;;1.16;100.00;101149.66;5196464;28;20037;-77
2022/02/03 00:22:08;;;;;;;9.75;1.95;;;;;;;1.27;100.00;101153.22;5205934;28;20056;-77
2022/02/03 00:25:06;;;;;;;10.30;1.63;;;;;;;1.40;100.00;101144.78;5206536;28;20083;-77
2022/02/03 00:30:15;;;;;;;13.25;2.30;;;;;;;1.71;100.00;101146.81;5202302;28;20028;-77
2022/02/03 00:49:49;;;;;;;10.88;1.58;;;;;;;2.60;100.00;101149.16;5205143;28;20056;-78
2022/02/03 00:52:20;;;;;;;13.55;1.90;;;;;;;2.73;100.00;101148.38;5195765;28;20060;-77
2022/02/03 00:54:50;;;;;;;12.80;1.52;;;;;;;2.82;100.00;101145.84;5194854;28;20437;-77
2022/02/03 00:57:40;;;;;;;12.48;1.58;;;;;;;2.80;100.00;101135.50;5195133;28;20036;-78
2022/02/03 01:00:13;;;;;;;5.53;1.67;;;;;;;2.83;100.00;101145.00;5190201;28;20029;-78
2022/02/03 01:02:50;;;;;;;11.20;1.48;;;;;;;2.86;100.00;101138.09;5202357;28;20033;-78
2022/02/03 01:05:21;;;;;;;13.40;1.80;;;;;;;2.88;100.00;101125.22;5191569;28;20490;-78
2022/02/03 01:07:52;;;;;;;9.00;1.50;;;;;;;2.90;100.00;101115.75;5194045;28;20030;-77
2022/02/03 01:10:29;;;;;;;13.07;1.63;;;;;;;2.92;100.00;101124.38;5184758;28;20037;-78
2022/02/03 01:13:08;;;;;;;8.25;1.40;;;;;;;2.95;100.00;101124.38;5192915;28;20302;-77
2022/02/03 01:15:50;;;;;;;8.27;1.63;;;;;;;2.97;100.00;101117.50;5195282;28;20112;-78
2022/02/03 01:45:58;;;;;;;7.13;1.10;;;;;;;2.85;100.00;101091.66;5207360;28;20029;-77
2022/02/03 01:51:48;;;;;;;12.13;1.55;;;;;;;3.06;100.00;101068.50;5203924;28;20508;-78
2022/02/03 01:54:05;;;;;;;8.05;1.45;;;;;;;2.85;100.00;101071.88;5205434;28;20112;-78
2022/02/03 01:56:41;;;;;;;7.50;1.60;;;;;;;2.84;100.00;101067.56;5197300;28;20124;-78
2022/02/03 01:59:20;;;;;;;10.55;1.30;;;;;;;2.86;100.00;101063.25;5203737;28;20025;-78
2022/02/03 02:01:59;;;;;;;8.40;1.58;;;;;;;2.79;100.00;101058.06;5207206;28;20132;-77
2022/02/03 02:04:47;;;;;;;9.13;1.80;;;;;;;2.70;100.00;101055.47;5194341;28;20033;-77
2022/02/03 02:07:42;;;;;;;7.43;1.13;;;;;;;2.71;100.00;101052.03;5194567;28;20041;-77
2022/02/03 02:13:53;;;;;;;7.60;1.20;;;;;;;2.72;100.00;101036.53;5207386;28;20091;-78
2022/02/03 02:40:03;;;;;;;10.30;1.38;;;;;;;2.66;100.00;100986.69;5203976;28;20064;-77
2022/02/03 02:42:54;;;;;;;7.90;1.38;;;;;;;2.66;100.00;100991.84;5205531;28;20093;-77
2022/02/03 02:46:01;;;;;;;8.07;1.33;;;;;;;2.82;100.00;100991.88;5193729;28;20400;-78
2022/02/03 02:48:38;;;;;;;10.02;1.52;;;;;;;2.77;100.00;100990.13;5205364;28;20295;-77
2022/02/03 02:51:17;;;;;;;11.45;1.55;;;;;;;2.75;100.00;100987.56;5192638;28;20033;-78
2022/02/03 03:31:12;;;;;;;7.43;1.50;;;;;;;2.93;100.00;100945.41;5201690;28;20068;-77
2022/02/03 03:33:59;;;;;;;13.35;1.60;;;;;;;2.89;100.00;100944.56;5199585;28;20097;-78
2022/02/03 03:36:32;;;;;;;8.00;1.40;;;;;;;2.87;100.00;100945.44;5201738;28;20116;-78
2022/02/03 03:39:03;;;;;;;9.02;1.40;;;;;;;2.92;100.00;100939.41;5203879;28;20030;-78
2022/02/03 03:41:35;;;;;;;9.48;1.50;;;;;;;2.92;100.00;100938.53;5203168;28;20036;-78
2022/02/03 03:44:07;;;;;;;10.10;1.73;;;;;;;2.97;100.00;100935.09;5203598;28;20482;-78
2022/02/03 03:46:39;;;;;;;12.75;1.77;;;;;;;3.02;100.00;100935.13;5219457;23;20013;-81
2022/02/03 03:49:29;;;;;;;12.48;1.83;;;;;;;3.10;100.00;100936.84;5246588;28;20064;-81
2022/02/03 03:52:07;;;;;;;11.57;1.90;;;;;;;3.23;100.00;100929.94;5251762;28;20052;-82
2022/02/03 03:54:52;;;;;;;14.48;2.92;;;;;;;3.46;100.00;100930.78;5248687;28;20554;-82
2022/02/03 04:33:45;;;;;;;23.38;5.28;;;;;;;4.66;100.00;100890.63;5270135;28;20555;-82
2022/02/03 04:56:56;;;;;;;22.42;5.78;;;;;;;4.77;100.00;100875.03;5270504;28;20063;-82
2022/02/03 05:05:58;;;;;;;22.95;5.53;;;;;;;4.40;100.00;100873.53;5270341;28;20032;-81
2022/02/03 05:12:37;;;;;;;19.15;4.82;;;;;;;4.24;100.00;100862.44;5245078;28;20040;-82
2022/02/03 05:16:40;;;;;;;16.35;4.60;;;;;;;4.30;100.00;100852.03;5277338;28;20143;-81
2022/02/03 05:19:18;;;;;;;20.17;5.18;;;;;;;4.35;100.00;100849.44;5264259;28;20051;-82
2022/02/03 05:22:44;;;;;;;18.52;4.90;;;;;;;4.36;100.00;100836.50;5271240;28;20040;-82
2022/02/03 05:42:05;;;;;;;17.67;4.70;;;;;;;4.26;100.00;100823.66;5270003;28;20442;-82
2022/02/03 05:44:02;;;;;;;14.15;4.90;;;;;;;4.36;100.00;100820.09;5272498;28;20123;-82
2022/02/03 06:08:17;;;;;;;15.88;4.97;;;;;;;4.51;100.00;100804.47;5269920;28;20038;-82
2022/02/03 06:14:01;;;;;;;13.55;4.90;;;;;;;4.46;100.00;100796.75;5275511;28;20046;-83
2022/02/03 06:21:56;;;;;;;11.20;4.28;;;;;;;4.57;100.00;100789.78;5273242;28;20082;-83
2022/02/03 06:29:42;;;;;;;13.32;4.97;;;;;;;4.54;100.00;100797.56;5270242;28;20019;-83
2022/02/03 06:32:13;;;;;;;16.75;4.65;;;;;;;4.58;100.00;100791.47;5274802;28;20028;-82
2022/02/03 06:34:43;;;;;;;16.20;4.35;;;;;;;4.64;100.00;100794.00;5272679;28;20106;-82
2022/02/03 06:37:13;;;;;;;12.55;4.78;;;;;;;4.74;100.00;100777.53;5271867;28;20061;-82
2022/02/03 06:39:44;;;;;;;10.38;4.60;;;;;;;4.67;100.00;100786.22;5272776;28;20024;-83
2022/02/03 06:42:14;;;;;;;14.38;4.80;;;;;;;4.61;100.00;100775.94;5275947;28;20034;-83
2022/02/03 06:44:53;;;;;;;9.52;4.63;;;;;;;4.73;100.00;100775.84;5272520;28;20027;-82
2022/02/03 06:55:56;;;;;;;14.10;6.18;;;;;;;5.07;100.00;100774.63;5210389;28;20095;-83
2022/02/03 06:58:35;;;;;;;11.73;6.82;;;;;;;5.15;100.00;100777.97;5269263;28;20039;-82
2022/02/03 07:01:12;;;;;;;16.98;6.75;;;;;;;5.24;100.00;100774.44;5275338;28;20106;-82
2022/02/03 07:03:51;;;;;;;21.52;7.40;;;;;;;5.31;100.00;100776.09;5264877;28;20557;-83
2022/02/03 07:06:22;;;;;;;17.20;7.22;;;;;;;5.35;100.00;100773.44;5269311;28;20540;-83
2022/02/03 07:08:53;;;;;;;15.02;7.95;;;;;;;5.40;100.00;100771.69;5274275;28;20072;-83
2022/02/03 07:11:24;;;;;;;18.25;9.43;;;;;;;5.46;100.00;100772.47;5273359;28;20032;-83
2022/02/03 07:13:54;;;;;;;23.92;9.82;;;;;;;5.51;100.00;100751.66;5273812;28;20089;-83
2022/02/03 07:16:25;;;;;;;17.60;8.23;;;;;;;5.51;100.00;100759.44;5273563;28;20077;-83
2022/02/03 07:18:55;;;;;;;19.20;9.25;;;;;;;5.72;100.00;100757.44;5272746;28;20023;-83
2022/02/03 07:21:25;;;;;;;20.85;9.45;;;;;;;5.61;100.00;100746.31;5273198;28;20063;-83
2022/02/03 07:23:56;;;;;;;25.35;11.18;;;;;;;5.62;100.00;100742.88;5271277;28;20403;-83
2022/02/03 07:26:26;;;;;;;19.58;9.60;;;;;;;5.61;100.00;100746.31;5273179;28;20066;-83
2022/02/03 07:28:56;;;;;;;18.40;8.88;;;;;;;5.72;100.00;100749.66;5273904;28;20032;-82
2022/02/03 07:31:27;;;;;;;16.40;9.75;;;;;;;5.69;100.00;100751.41;5272538;28;20054;-83
2022/02/03 07:34:03;;;;;;;15.45;9.75;;;;;;;5.68;100.00;100749.69;5269470;28;20038;-83
2022/02/03 07:36:34;;;;;;;17.52;9.07;;;;;;;5.72;100.00;100747.06;5274506;28;20434;-83
2022/02/03 07:39:05;;;;;;;16.25;8.55;;;;;;;5.77;100.00;100742.66;5271749;28;20020;-82
2022/02/03 07:41:36;;;;;;;22.90;8.55;;;;;;;5.84;100.00;100744.34;5275135;28;20039;-83
2022/02/03 07:44:07;;;;;;;20.17;9.70;;;;;;;5.77;100.00;100739.22;5271524;28;20462;-83
2022/02/03 07:46:38;;;;;;;16.02;8.95;;;;;;;5.77;100.00;100736.63;5272896;28;20050;-82
2022/02/03 07:49:08;;;;;;;15.82;8.55;;;;;;;5.80;100.00;100740.09;5271187;28;20089;-82
2022/02/03 07:51:38;;;;;;;13.57;7.55;;;;;;;5.98;100.00;100736.34;5274974;28;20456;-83
2022/02/03 07:54:10;;;;;;;16.35;8.20;;;;;;;6.00;100.00;100739.78;5266502;28;20597;-83
2022/02/03 07:56:40;;;;;;;13.68;8.38;;;;;;;5.92;100.00;100737.28;5274520;28;20042;-83
2022/02/03 07:59:10;;;;;;;16.70;8.40;;;;;;;5.92;100.00;100737.28;5270716;28;20020;-83
2022/02/03 08:01:41;;;;;;;15.18;7.80;;;;;;;5.89;100.00;100745.13;5275258;28;20039;-83
2022/02/03 08:04:11;;;;;;;15.95;7.53;;;;;;;5.93;100.00;100744.19;5269382;28;20111;-82
2022/02/03 08:06:45;;;;;;;12.35;7.28;;;;;;;5.88;100.00;100745.16;5273825;28;20750;-83
2022/02/03 08:09:23;;;;;;;14.45;7.45;;;;;;;5.88;100.00;100739.97;5268493;28;20153;-83
2022/02/03 08:11:54;;;;;;;15.43;7.63;;;;;;;5.90;100.00;100740.81;5267663;28;20039;-82
2022/02/03 08:14:41;;;;;;;14.95;7.47;;;;;;;5.93;100.00;100743.34;5269588;28;20028;-81
2022/02/03 08:17:21;;;;;;;12.50;6.97;;;;;;;5.92;100.00;100733.84;5266687;28;20028;-80
2022/02/03 08:19:56;;;;;;;19.13;7.88;;;;;;;5.92;100.00;100728.66;5268751;28;20028;-80
2022/02/03 08:22:36;;;;;;;13.05;7.18;;;;;;;5.91;100.00;100730.41;5268256;28;20093;-80
2022/02/03 08:25:23;;;;;;;14.27;8.00;;;;;;;5.97;100.00;100734.66;5264674;28;20028;-80
2022/02/03 08:28:25;;;;;;;13.15;7.13;;;;;;;5.97;100.00;100737.22;5265121;28;20032;-80
2022/02/03 08:30:58;;;;;;;13.02;8.45;;;;;;;6.05;100.00;100738.00;5266249;28;20039;-81
2022/02/03 08:33:30;;;;;;;15.68;8.50;;;;;;;6.12;100.00;100734.41;5266233;28;20100;-81
2022/02/03 08:36:04;;;;;;;17.77;9.52;;;;;;;6.12;100.00;100740.44;5265614;28;20030;-81
2022/02/03 08:41:14;;;;;;;17.23;8.90;;;;;;;6.19;100.00;100730.84;5272171;28;20036;-81
2022/02/03 08:43:46;;;;;;;17.42;9.20;;;;;;;6.26;100.00;100728.13;5271248;28;20035;-81
2022/02/03 08:46:16;;;;;;;17.35;9.77;;;;;;;6.28;100.00;100717.72;5271528;28;20043;-81
2022/02/03 08:48:46;;;;;;;14.82;9.10;;;;;;;6.29;100.00;100716.84;5272157;28;20024;-80
2022/02/03 08:51:17;;;;;;;15.68;9.07;;;;;;;6.36;100.00;100719.31;5275226;28;20040;-81
2022/02/03 08:53:52;;;;;;;16.30;8.75;;;;;;;6.43;100.00;100714.91;5271913;28;20104;-81
2022/02/03 08:59:19;;;;;;;15.25;9.30;;;;;;;6.44;100.00;100712.25;5275611;28;20036;-81
2022/02/03 09:54:58;;;;;;;15.07;7.45;;;;;;;6.91;100.00;100690.66;5196994;28;20037;-92
2022/02/03 10:00:38;;;;;;;15.43;7.80;;;;;;;6.97;100.00;100687.94;5206732;28;20364;-92
2022/02/03 10:03:18;;;;;;;13.80;8.50;;;;;;;7.08;100.00;100684.22;5182064;28;20121;-91
2022/02/03 10:06:12;;;;;;;13.85;7.88;;;;;;;7.04;100.00;100680.00;5179319;28;20454;-91
2022/02/03 10:08:55;;;;;;;18.38;10.30;;;;;;;7.09;100.00;100682.50;5193163;28;20021;-92
2022/02/03 10:11:29;;;;;;;18.40;9.85;;;;;;;7.13;100.00;100679.78;5207694;28;20029;-93
2022/02/03 10:14:03;;;;;;;15.35;8.57;;;;;;;7.27;100.00;100676.94;5204076;28;20045;-91
2022/02/03 10:16:40;;;;;;;15.68;8.52;;;;;;;7.31;100.00;100679.41;5197236;28;20025;-92
2022/02/03 10:19:18;;;;;;;18.08;9.43;;;;;;;7.36;100.00;100677.59;5168961;28;20040;-91
2022/02/03 10:21:50;;;;;;;19.75;11.32;;;;;;;7.27;100.00;100677.78;5221153;28;20043;-91
2022/02/03 10:24:36;;;;;;;23.52;11.43;;;;;;;7.35;100.00;100676.72;5210054;28;20132;-92
2022/02/03 10:27:28;;;;;;;17.40;9.05;;;;;;;7.29;100.00;100678.59;5217837;28;20053;-92
2022/02/03 10:30:11;;;;;;;16.13;7.43;;;;;;;7.36;100.00;100673.22;5192316;28;20356;-91
2022/02/03 10:32:46;;;;;;;11.60;6.50;;;;;;;7.32;100.00;100663.78;5251878;22;20717;-81
2022/02/03 10:35:44;;;;;;;12.98;6.55;;;;;;;7.43;100.00;100664.44;5229374;28;20056;-81
2022/02/03 10:41:14;;;;;;;;;;;;;;;7.59;100.00;100652.81;5237258;28;20044;-82
2022/02/03 11:03:38;;;;;;;14.07;8.88;;;;;;;7.55;100.00;100643.34;5235107;28;19966;-81
2022/02/03 11:11:32;;;;;;;15.18;8.65;;;;;;;7.59;100.00;100626.81;5236585;28;20145;-81
2022/02/03 11:14:04;;;;;;;13.02;8.02;;;;;;;7.64;100.00;100614.53;5234212;28;20032;-81
2022/02/03 11:16:39;;;;;;;16.08;8.10;;;;;;;7.70;100.00;100617.00;5232636;28;20025;-82
2022/02/03 11:19:13;;;;;;;;;;;;;;;7.73;100.00;100610.88;5229815;28;20107;-81
2022/02/03 11:21:49;;;;;;;13.07;8.05;;;;;;;7.66;100.00;100609.31;5234485;28;19917;-82
2022/02/03 11:24:30;;;;;;;16.95;9.13;;;;;;;7.60;100.00;100599.91;5234897;28;20470;-82
2022/02/03 11:27:14;;;;;;;14.10;8.38;;;;;;;7.60;100.00;100594.72;5236070;28;20028;-81
2022/02/03 11:53:55;;;;;;;18.45;10.20;;;;;;;7.60;100.00;100579.09;5235594;28;20059;-81
2022/02/03 12:22:21;;;;;;;15.32;8.88;;;;;;;7.66;100.00;100546.91;5230494;28;20500;-82
2022/02/03 12:25:08;;;;;;;14.35;8.20;;;;;;;7.62;100.00;100543.50;5232170;28;20109;-82
2022/02/03 12:31:03;;;;;;;15.48;7.88;;;;;;;7.56;100.00;100515.03;5181285;28;20119;-82
2022/02/03 12:38:54;;;;;;;15.40;7.80;;;;;;;7.56;100.00;100511.59;5226117;28;20167;-81
2022/02/03 12:41:54;;;;;;;15.07;7.97;;;;;;;7.56;100.00;100509.00;5231450;28;20028;-81
2022/02/03 12:44:27;;;;;;;16.23;8.48;;;;;;;7.57;100.00;100502.91;5231458;28;20442;-81
2022/02/03 12:47:04;;;;;;;17.40;8.65;;;;;;;7.57;100.00;100506.38;5231112;28;20032;-82
2022/02/03 12:49:39;;;;;;;15.70;8.57;;;;;;;7.56;100.00;100506.41;5233706;28;20047;-81
2022/02/03 12:52:29;;;;;;;16.77;8.07;;;;;;;7.59;100.00;100509.78;5226200;28;20025;-82
2022/02/03 12:54:59;;;;;;;14.25;8.65;;;;;;;7.60;100.00;100514.09;5232947;28;20036;-83
2022/02/03 12:57:33;;;;;;;14.75;9.07;;;;;;;7.69;100.00;100500.00;5234327;28;20041;-81
2022/02/03 13:00:28;;;;;;;15.38;9.57;;;;;;;7.60;100.00;100495.88;5231027;28;20565;-82
2022/02/03 13:03:01;;;;;;;15.32;8.40;;;;;;;7.60;100.00;100485.50;5232076;28;20040;-81
2022/02/03 13:05:36;;;;;;;14.57;7.70;;;;;;;7.62;100.00;100485.44;5230551;28;20031;-82
2022/02/03 13:08:08;;;;;;;10.65;5.78;;;;;;;7.57;100.00;100485.56;5229088;28;20029;-82
2022/02/03 13:10:40;;;;;;;16.42;8.00;;;;;;;7.56;100.00;100481.22;5229743;28;20029;-81
2022/02/03 13:13:33;;;;;;;15.13;7.88;;;;;;;7.57;100.00;100479.50;5234425;28;20295;-82
2022/02/03 13:16:11;;;;;;;16.77;7.88;;;;;;;7.53;100.00;100488.28;5233118;28;20043;-82
2022/02/03 13:18:49;;;;;;;15.02;7.72;;;;;;;7.50;100.00;100477.97;5226905;28;20580;-81
2022/02/03 13:21:36;;;;;;;15.60;8.35;;;;;;;7.61;100.00;100470.72;5232662;28;20104;-83
2022/02/03 13:24:37;;;;;;;14.48;8.20;;;;;;;7.56;100.00;100473.44;5235352;28;20025;-82
2022/02/03 13:27:13;;;;;;;14.73;8.15;;;;;;;7.66;100.00;100461.06;5237876;28;20300;-81
2022/02/03 13:30:09;;;;;;;16.40;8.32;;;;;;;7.67;100.00;100461.03;5231200;28;20047;-81
2022/02/03 13:32:48;;;;;;;13.05;7.22;;;;;;;7.69;100.00;100459.22;5234744;28;20091;-82
2022/02/03 13:35:24;;;;;;;14.77;8.02;;;;;;;7.74;100.00;100461.72;5232013;28;20511;-83
2022/02/03 13:38:07;;;;;;;16.33;8.30;;;;;;;7.74;100.00;100446.94;5235865;28;20035;-83
2022/02/03 13:40:37;;;;;;;15.95;7.55;;;;;;;7.72;100.00;100447.91;5237138;28;20024;-82
2022/02/03 13:43:10;;;;;;;13.35;7.70;;;;;;;7.77;100.00;100448.63;5237048;28;20831;-83
2022/02/03 13:45:42;;;;;;;11.65;6.28;;;;;;;7.73;100.00;100450.44;5233121;28;20033;-82
2022/02/03 13:48:17;;;;;;;12.13;6.68;;;;;;;7.76;100.00;100447.78;5236684;28;20029;-81
2022/02/03 13:50:54;;;;;;;12.48;7.57;;;;;;;7.75;100.00;100435.69;5232768;28;20098;-79
2022/02/03 13:53:35;;;;;;;13.77;7.55;;;;;;;7.77;100.00;100441.69;5232191;28;20796;-82
2022/02/03 14:14:15;;;;;;;13.00;7.43;;;;;;;7.74;100.00;100409.69;5234320;28;20086;-82
2022/02/03 14:20:04;;;;;;;12.88;7.43;;;;;;;7.83;100.00;100399.91;5229537;28;20094;-82
2022/02/03 14:22:10;;;;;;;12.20;6.55;;;;;;;7.81;100.00;100395.63;5237412;28;20028;-80
2022/02/03 14:27:31;;;;;;;11.57;5.65;;;;;;;7.75;100.00;100396.66;5230620;28;20067;-80
2022/02/03 14:30:13;;;;;;;9.68;5.63;;;;;;;7.88;100.00;100387.59;5231774;28;20024;-82
2022/02/03 14:32:44;;;;;;;10.70;6.00;;;;;;;7.89;100.00;100372.88;5232391;28;20035;-80
2022/02/03 14:35:14;;;;;;;10.00;5.80;;;;;;;7.87;100.00;100372.06;5231399;28;20024;-82
2022/02/03 14:38:00;;;;;;;12.20;5.65;;;;;;;7.83;100.00;100376.47;5223736;28;20029;-82
2022/02/03 14:40:37;;;;;;;7.85;4.72;;;;;;;7.90;100.00;100375.41;5235771;28;20104;-82
2022/02/03 14:43:08;;;;;;;10.90;5.55;;;;;;;7.83;100.00;100370.41;5235525;28;20720;-81
2022/02/03 14:45:38;;;;;;;10.57;5.30;;;;;;;7.75;100.00;100375.84;5237718;28;20024;-82
2022/02/03 14:48:11;;;;;;;11.57;4.85;;;;;;;7.70;100.00;100367.31;5231630;28;20024;-82
2022/02/03 14:50:43;;;;;;;7.22;4.63;;;;;;;7.68;100.00;100366.50;5236979;28;20641;-84
2022/02/03 14:53:20;;;;;;;12.23;4.97;;;;;;;7.71;100.00;100356.00;5236860;28;20058;-83
2022/02/03 14:58:39;;;;;;;9.43;4.85;;;;;;;7.91;100.00;100348.50;5228231;28;20067;-82
2022/02/03 15:01:13;;;;;;;9.05;4.80;;;;;;;7.92;100.00;100351.97;5231701;28;20443;-82
2022/02/03 15:03:43;;;;;;;9.63;4.93;;;;;;;7.81;100.00;100348.78;5233919;28;20071;-79
2022/02/03 15:06:22;;;;;;;11.20;5.22;;;;;;;7.84;100.00;100357.38;5227262;28;20044;-84
2022/02/03 15:09:11;;;;;;;8.77;5.03;;;;;;;7.78;100.00;100356.69;5227862;28;20021;-83
2022/02/03 15:14:22;;;;;;;10.20;5.40;;;;;;;7.75;100.00;100343.78;5225056;28;20099;-80
2022/02/03 15:16:53;;;;;;;14.73;6.63;;;;;;;7.72;100.00;100344.69;5227085;28;20554;-81
2022/02/03 15:19:23;;;;;;;12.25;7.35;;;;;;;7.71;100.00;100348.19;5240992;28;20135;-81
2022/02/03 15:21:53;;;;;;;13.10;7.50;;;;;;;7.68;100.00;100340.50;5241389;28;20116;-82
2022/02/03 15:24:24;;;;;;;10.30;6.75;;;;;;;7.65;100.00;100337.97;5228810;28;20082;-82
2022/02/03 15:26:55;;;;;;;12.10;6.20;;;;;;;7.66;100.00;100342.28;5222568;28;20020;-82
2022/02/03 15:29:28;;;;;;;10.82;6.50;;;;;;;7.68;100.00;100340.50;5228193;28;20055;-83
2022/02/03 15:31:59;;;;;;;10.82;5.82;;;;;;;7.68;100.00;100332.69;5227651;28;20024;-81
2022/02/03 15:34:29;;;;;;;11.38;5.25;;;;;;;7.64;100.00;100331.06;5230027;28;20562;-84
2022/02/03 15:37:02;;;;;;;8.88;4.90;;;;;;;7.62;100.00;100322.47;5223241;28;20497;-84
2022/02/03 15:39:39;;;;;;;10.75;5.00;;;;;;;7.69;100.00;100324.00;5227231;28;20025;-82
2022/02/03 15:42:09;;;;;;;9.43;4.43;;;;;;;7.71;100.00;100331.75;5226312;28;20119;-85
2022/02/03 15:44:43;;;;;;;6.55;4.15;;;;;;;7.61;100.00;100325.97;5230953;28;20107;-84
2022/02/03 15:47:19;;;;;;;8.05;4.53;;;;;;;7.56;100.00;100332.19;5232736;28;20532;-82
2022/02/03 16:03:43;;;;;;;7.00;3.90;;;;;;;7.51;100.00;100302.88;5222597;28;20044;-84
2022/02/03 16:17:31;;;;;;;5.53;3.40;;;;;;;7.65;100.00;100306.78;5216782;22;20143;-79
2022/02/03 16:26:13;;;;;;;5.15;2.80;;;;;;;7.71;100.00;100314.38;5213615;28;20497;-78
2022/02/03 16:50:50;;;;;;;8.45;6.47;;;;;;;7.59;100.00;100334.69;5187515;28;20479;-79
2022/02/03 16:53:20;;;;;;;8.10;5.95;;;;;;;7.58;100.00;100325.19;5192566;28;20049;-79
2022/02/03 16:55:51;;;;;;;9.82;6.07;;;;;;;7.48;100.00;100335.00;5184427;28;20480;-79
2022/02/03 16:58:21;;;;;;;9.55;6.70;;;;;;;7.51;100.00;100319.28;5190949;28;20057;-79
2022/02/03 17:00:52;;;;;;;9.95;6.90;;;;;;;7.47;100.00;100325.47;5194432;28;20026;-79
2022/02/03 17:03:22;;;;;;;12.23;7.90;;;;;;;7.40;100.00;100318.75;5199662;28;20552;-79
2022/02/03 17:05:52;;;;;;;13.02;8.23;;;;;;;7.50;100.00;100328.00;5191257;28;20026;-79
2022/02/03 17:08:24;;;;;;;11.25;8.05;;;;;;;7.34;100.00;100331.91;5191072;28;20042;-79
2022/02/03 17:10:54;;;;;;;14.05;8.85;;;;;;;7.29;100.00;100318.19;5196151;28;20518;-78
2022/02/03 17:13:25;;;;;;;16.48;9.52;;;;;;;7.19;100.00;100322.78;5193000;28;20038;-78
2022/02/03 17:15:55;;;;;;;13.60;8.68;;;;;;;7.26;100.00;100316.56;5189013;28;20061;-78
2022/02/03 17:18:26;;;;;;;13.20;9.70;;;;;;;7.26;100.00;100316.56;5198546;28;20030;-79
2022/02/03 17:20:56;;;;;;;12.70;9.50;;;;;;;7.13;100.00;100310.81;5193997;28;20178;-79
2022/02/03 17:23:28;;;;;;;12.38;9.75;;;;;;;7.19;100.00;100313.25;5176169;28;20053;-79
2022/02/03 17:26:13;;;;;;;16.25;10.88;;;;;;;7.12;100.00;100319.50;5177684;28;20034;-79
2022/02/03 17:29:13;;;;;;;17.15;12.32;;;;;;;7.13;100.00;100312.56;5187939;28;20072;-78
2022/02/03 17:55:15;;;;;;;12.88;8.77;;;;;;;6.99;100.00;100296.47;5178941;28;20041;-78
2022/02/03 18:09:04;;;;;;;13.43;8.73;;;;;;;6.82;100.00;100303.84;5190143;28;20052;-79
2022/02/03 18:17:29;;;;;;;13.05;8.50;;;;;;;6.76;100.00;100293.63;5198692;28;20052;-78
2022/02/03 18:31:26;;;;;;;14.57;9.13;;;;;;;6.76;100.00;100278.88;5182561;28;20132;-78
2022/02/03 18:50:37;;;;;;;15.15;8.27;;;;;;;6.85;100.00;100294.25;5185573;28;20041;-78
2022/02/03 18:53:23;;;;;;;14.77;9.40;;;;;;;6.81;100.00;100299.53;5190551;28;20068;-78
2022/02/03 19:01:20;;;;;;;11.10;7.68;;;;;;;6.87;100.00;100289.84;5207958;28;20026;-78
2022/02/03 19:10:17;;;;;;;12.73;8.40;;;;;;;6.87;100.00;100286.38;5204808;28;20064;-79
2022/02/03 19:26:24;;;;;;;13.80;8.00;;;;;;;6.69;100.00;100276.47;5208707;28;20029;-78
2022/02/03 19:29:11;;;;;;;13.73;7.38;;;;;;;6.63;100.00;100281.81;5203513;28;20050;-78
2022/02/03 20:11:11;;;;;;;11.50;6.57;;;;;;;6.32;100.00;100270.44;5197955;28;20029;-79
2022/02/03 20:13:41;;;;;;;9.38;6.00;;;;;;;6.31;100.00;100271.34;5206259;28;20117;-79
2022/02/03 20:16:15;;;;;;;10.73;6.57;;;;;;;6.32;100.00;100270.44;5206747;28;20498;-78
2022/02/03 20:18:45;;;;;;;10.07;6.05;;;;;;;6.27;100.00;100260.16;5207038;28;20148;-79
2022/02/03 20:21:16;;;;;;;11.07;6.05;;;;;;;6.25;100.00;100256.75;5207433;28;20149;-78
2022/02/03 20:23:47;;;;;;;13.65;6.40;;;;;;;6.23;100.00;100255.13;5206997;28;20097;-79
2022/02/03 20:26:17;;;;;;;11.48;6.72;;;;;;;6.31;100.00;100250.59;5207605;28;20037;-78
2022/02/03 20:28:48;;;;;;;11.77;7.40;;;;;;;6.27;100.00;100247.19;5207649;28;20546;-78
2022/02/03 20:31:18;;;;;;;11.70;7.40;;;;;;;6.29;100.00;100249.78;5203827;28;20100;-77
2022/02/03 20:33:48;;;;;;;13.60;7.55;;;;;;;6.32;100.00;100249.69;5205109;28;20082;-78
2022/02/03 20:36:19;;;;;;;13.32;7.57;;;;;;;6.29;100.00;100255.78;5197914;28;20033;-79
2022/02/03 20:38:51;;;;;;;12.88;7.63;;;;;;;6.32;100.00;100253.16;5199442;28;20037;-78
2022/02/03 20:41:22;;;;;;;10.60;6.85;;;;;;;6.28;100.00;100254.09;5204413;28;20056;-78
2022/02/03 20:43:53;;;;;;;12.80;7.22;;;;;;;6.30;100.00;100252.34;5205522;28;20079;-78
2022/02/03 20:46:24;;;;;;;10.85;6.70;;;;;;;6.24;100.00;100251.63;5206222;28;20045;-78
2022/02/03 20:48:54;;;;;;;13.35;7.20;;;;;;;6.23;100.00;100249.94;5198975;28;20017;-78
2022/02/03 20:51:25;;;;;;;10.70;6.80;;;;;;;6.22;100.00;100250.81;5181495;28;20340;-77
2022/02/03 20:53:55;;;;;;;10.13;6.57;;;;;;;6.25;100.00;100242.97;5181868;28;20061;-78
2022/02/03 20:56:25;;;;;;;11.60;7.18;;;;;;;6.21;100.00;100246.47;5189244;28;20034;-78
2022/02/03 20:58:59;;;;;;;11.85;7.18;;;;;;;6.28;100.00;100240.28;5189824;28;20124;-78
2022/02/03 21:01:33;;;;;;;10.88;6.78;;;;;;;6.19;100.00;100245.69;5186210;28;20509;-77
2022/02/03 21:04:16;;;;;;;15.30;7.28;;;;;;;6.20;100.00;100247.38;5192128;28;20029;-78
2022/02/03 21:06:46;;;;;;;11.63;6.85;;;;;;;6.19;100.00;100243.06;5187578;28;20034;-78
2022/02/03 21:09:16;;;;;;;11.40;6.97;;;;;;;6.26;100.00;100239.47;5190132;28;20037;-78
2022/02/03 21:11:46;;;;;;;13.40;7.50;;;;;;;6.23;100.00;100247.34;5170567;28;20303;-79
2022/02/03 21:14:17;;;;;;;11.27;7.38;;;;;;;6.32;100.00;100245.38;5188825;28;20029;-79
2022/02/03 21:16:51;;;;;;;12.77;7.63;;;;;;;6.28;100.00;100237.69;5187849;28;20500;-78
2022/02/03 21:19:22;;;;;;;11.77;7.18;;;;;;;6.34;100.00;100247.91;5200339;28;20056;-78
2022/02/03 21:21:52;;;;;;;14.18;8.57;;;;;;;6.34;100.00;100248.78;5192903;28;20038;-78
2022/02/03 21:24:23;;;;;;;11.60;7.72;;;;;;;6.36;100.00;100248.72;5191507;28;20123;-79
2022/02/03 21:26:56;;;;;;;13.45;8.00;;;;;;;6.41;100.00;100244.31;5192431;28;20049;-78
2022/02/03 21:29:27;;;;;;;14.38;7.95;;;;;;;6.34;100.00;100251.38;5183141;28;20717;-78
2022/02/03 21:31:58;;;;;;;14.40;8.45;;;;;;;6.28;100.00;100248.91;5188918;28;20042;-78
2022/02/03 21:34:28;;;;;;;14.80;8.50;;;;;;;6.36;100.00;100251.31;5184543;28;20030;-79
2022/02/03 21:36:58;;;;;;;14.65;8.38;;;;;;;6.38;100.00;100250.41;5188373;28;20215;-78
2022/02/03 21:39:28;;;;;;;15.95;9.23;;;;;;;6.34;100.00;100258.28;5189393;28;20040;-78
2022/02/03 21:41:59;;;;;;;14.30;8.90;;;;;;;6.31;100.00;100255.78;5193111;28;20041;-78
2022/02/03 21:44:29;;;;;;;12.98;7.57;;;;;;;6.25;100.00;100253.34;5193798;28;20095;-78
2022/02/03 21:46:59;;;;;;;12.88;8.02;;;;;;;6.22;100.00;100246.47;5192750;28;20035;-78
2022/02/03 21:49:30;;;;;;;11.60;7.85;;;;;;;6.23;100.00;100247.34;5187913;28;20476;-78
2022/02/03 21:52:00;;;;;;;15.07;8.35;;;;;;;6.25;100.00;100248.16;5186708;28;20056;-78
2022/02/03 21:54:34;;;;;;;13.77;9.05;;;;;;;6.35;100.00;100247.03;5187154;28;20328;-78
2022/02/03 21:57:05;;;;;;;15.45;8.68;;;;;;;6.29;100.00;100249.78;5183621;28;20087;-78
2022/02/03 21:59:35;;;;;;;14.75;7.93;;;;;;;6.23;100.00;100247.34;5172088;28;20033;-78
2022/02/03 22:02:07;;;;;;;13.95;8.80;;;;;;;6.25;100.00;100248.16;5190554;28;20495;-78
2022/02/03 22:04:38;;;;;;;13.88;8.57;;;;;;;6.23;100.00;100239.56;5186352;28;20418;-78
2022/02/03 22:07:08;;;;;;;14.13;8.88;;;;;;;6.33;100.00;100247.06;5200169;28;20029;-78
2022/02/03 22:09:40;;;;;;;14.52;8.65;;;;;;;6.21;100.00;100249.09;5207653;28;20036;-78
2022/02/03 22:12:10;;;;;;;15.13;8.35;;;;;;;6.28;100.00;100240.28;5198618;28;20495;-78
2022/02/03 22:14:40;;;;;;;13.90;8.75;;;;;;;6.33;100.00;100241.03;5196285;28;20036;-78
2022/02/03 22:17:11;;;;;;;12.43;7.80;;;;;;;6.35;100.00;100250.47;5221216;23;20045;-81
2022/02/03 22:19:51;;;;;;;13.05;7.65;;;;;;;6.39;100.00;100240.91;5222157;28;20138;-80